Time;durP1;ratioP1;P1;durP2;ratioP2;P2;SDS_P1;SDS_P2;PMS_P1;PMS_P2;Temp;Humidity;BMP_temperature;BMP_pressure;BME280_temperature;BME280_humidity;BME280_pressure;Samples;Min_cycle;Max_cycle;Signal;HPM_P1;HPM_P2
2023/08/28 06:05:39;;;;;;;7.45;3.85;;;;;;;;;;5126675;27;20139;-70
2023/08/28 06:08:06;;;;;;;5.03;3.33;;;;;;;;;;5127273;28;20130;-71
2023/08/28 06:10:33;;;;;;;8.25;3.78;;;;;;;;;;5127875;28;20069;-71
2023/08/28 06:13:00;;;;;;;7.47;3.30;;;;;;;;;;5106830;28;20150;-72
2023/08/28 06:15:28;;;;;;;4.65;3.50;;;;;;;;;;5105752;28;20047;-71
2023/08/28 06:17:54;;;;;;;4.28;3.20;;;;;;;;;;5105776;28;20068;-71
2023/08/28 06:20:22;;;;;;;7.90;2.92;;;;;;;;;;5106877;28;20087;-69
2023/08/28 06:22:48;;;;;;;4.20;2.53;;;;;;;;;;5106271;28;20047;-69
2023/08/28 06:25:15;;;;;;;7.70;3.10;;;;;;;;;;5106703;28;20043;-69
2023/08/28 06:27:41;;;;;;;4.25;2.45;;;;;;;;;;5106194;28;20071;-69
2023/08/28 06:30:09;;;;;;;9.27;2.60;;;;;;;;;;5106827;28;20044;-69
2023/08/28 06:32:35;;;;;;;4.05;3.05;;;;;;;;;;5105598;28;20054;-70
2023/08/28 06:35:02;;;;;;;6.55;2.30;;;;;;;;;;5106558;28;20048;-69
2023/08/28 06:37:28;;;;;;;5.35;2.53;;;;;;;;;;5105623;28;20120;-67
2023/08/28 06:39:55;;;;;;;3.80;2.63;;;;;;;;;;5084972;28;20166;-68
2023/08/28 06:42:22;;;;;;;8.20;2.90;;;;;;;;;;5094907;28;20451;-67
2023/08/28 06:44:49;;;;;;;4.43;2.85;;;;;;;;;;5106435;28;20127;-67
2023/08/28 06:47:16;;;;;;;3.42;2.40;;;;;;;;;;5105108;28;20432;-68
2023/08/28 06:49:43;;;;;;;3.22;2.20;;;;;;;;;;5106325;28;20139;-67
2023/08/28 06:52:09;;;;;;;3.40;2.40;;;;;;;;;;5105453;28;20047;-68
2023/08/28 06:54:36;;;;;;;4.88;2.45;;;;;;;;;;5105258;28;20662;-68
2023/08/28 06:57:17;;;;;;;;;;;;;;;;;;5094456;28;20032;-68
2023/08/28 06:59:43;;;;;;;6.82;3.20;;;;;;;;;;5105812;28;19951;-67
2023/08/28 07:02:10;;;;;;;5.65;3.25;;;;;;;;;;5105641;28;20122;-67
2023/08/28 07:04:36;;;;;;;9.65;3.85;;;;;;;;;;5105644;28;20048;-67
2023/08/28 07:07:03;;;;;;;5.70;3.13;;;;;;;;;;5105407;28;20490;-67
2023/08/28 07:09:29;;;;;;;5.82;3.35;;;;;;;;;;5105446;28;20647;-68
2023/08/28 07:11:56;;;;;;;9.70;3.15;;;;;;;;;;5086846;28;20114;-67
2023/08/28 07:14:22;;;;;;;5.85;3.10;;;;;;;;;;5105188;28;20090;-68
2023/08/28 07:16:49;;;;;;;7.15;3.35;;;;;;;;;;5091284;28;20048;-68
2023/08/28 07:19:15;;;;;;;7.85;3.22;;;;;;;;;;5090544;28;20044;-67
2023/08/28 07:21:42;;;;;;;7.28;3.42;;;;;;;;;;5091786;28;20422;-67
2023/08/28 07:24:08;;;;;;;8.55;5.60;;;;;;;;;;5091406;28;20043;-66
2023/08/28 07:26:35;;;;;;;10.18;4.45;;;;;;;;;;5085506;28;20533;-67
2023/08/28 07:29:02;;;;;;;7.90;3.05;;;;;;;;;;5097236;28;20055;-68
2023/08/28 07:31:28;;;;;;;15.35;5.60;;;;;;;;;;5096102;28;20055;-67
2023/08/28 07:33:55;;;;;;;4.80;2.30;;;;;;;;;;5097339;28;20138;-68
2023/08/28 07:36:22;;;;;;;3.67;2.45;;;;;;;;;;5094111;28;20191;-66
2023/08/28 07:38:49;;;;;;;4.13;2.10;;;;;;;;;;5094107;28;20071;-67
2023/08/28 07:41:18;;;;;;;8.63;2.53;;;;;;;;;;5093852;28;20068;-64
2023/08/28 07:43:45;;;;;;;3.75;2.55;;;;;;;;;;5094992;28;20087;-66
2023/08/28 07:46:11;;;;;;;4.57;2.30;;;;;;;;;;5094521;28;20039;-66
2023/08/28 07:48:38;;;;;;;5.65;1.83;;;;;;;;;;5095446;28;20138;-66
2023/08/28 07:51:04;;;;;;;3.15;1.58;;;;;;;;;;5091937;28;20040;-66
2023/08/28 07:53:31;;;;;;;6.43;1.98;;;;;;;;;;5096113;28;20038;-66
2023/08/28 07:55:57;;;;;;;3.28;1.80;;;;;;;;;;5095977;28;20035;-66
2023/08/28 07:58:24;;;;;;;4.68;1.45;;;;;;;;;;5096275;28;20051;-66
2023/08/28 08:00:50;;;;;;;4.25;2.10;;;;;;;;;;5096396;28;20054;-66
2023/08/28 08:03:19;;;;;;;8.38;1.70;;;;;;;;;;5091143;28;20081;-67
2023/08/28 08:05:47;;;;;;;3.10;1.58;;;;;;;;;;5073546;28;20086;-65
2023/08/28 08:08:13;;;;;;;4.10;1.42;;;;;;;;;;5092381;28;20039;-65
2023/08/28 08:10:40;;;;;;;7.38;2.67;;;;;;;;;;5096555;28;20056;-65
2023/08/28 08:13:06;;;;;;;3.08;1.52;;;;;;;;;;5095730;28;20067;-67
2023/08/28 08:15:33;;;;;;;2.80;1.60;;;;;;;;;;5093713;28;20698;-65
2023/08/28 08:18:00;;;;;;;2.15;1.50;;;;;;;;;;5094909;28;20447;-66
2023/08/28 08:20:26;;;;;;;5.82;1.38;;;;;;;;;;5090576;28;20045;-66
2023/08/28 08:22:53;;;;;;;4.13;1.30;;;;;;;;;;5094710;28;20115;-65
2023/08/28 08:25:22;;;;;;;6.30;1.77;;;;;;;;;;5093396;28;20040;-65
2023/08/28 08:27:49;;;;;;;5.25;1.60;;;;;;;;;;5075618;28;20070;-65
2023/08/28 08:30:16;;;;;;;3.17;1.42;;;;;;;;;;5094173;28;20046;-65
2023/08/28 08:32:43;;;;;;;3.58;1.67;;;;;;;;;;5095752;28;20132;-67
2023/08/28 08:35:11;;;;;;;2.40;1.35;;;;;;;;;;5096315;28;20504;-67
2023/08/28 08:37:40;;;;;;;2.17;1.08;;;;;;;;;;5094237;28;20140;-68
2023/08/28 08:40:12;;;;;;;3.53;1.30;;;;;;;;;;5096051;28;20036;-67
2023/08/28 08:42:38;;;;;;;5.70;1.58;;;;;;;;;;5095772;28;20050;-68
2023/08/28 08:45:05;;;;;;;4.85;1.25;;;;;;;;;;5092914;28;20045;-69
2023/08/28 08:47:33;;;;;;;4.45;1.30;;;;;;;;;;5095956;28;20856;-66
2023/08/28 08:50:03;;;;;;;4.03;1.40;;;;;;;;;;5077120;28;20047;-68
2023/08/28 08:52:30;;;;;;;5.40;1.83;;;;;;;;;;5093755;28;20087;-65
2023/08/28 08:54:59;;;;;;;4.95;1.60;;;;;;;;;;5094177;28;20131;-68
2023/08/28 08:57:30;;;;;;;2.47;1.02;;;;;;;;;;5095854;28;20435;-68
2023/08/28 08:59:57;;;;;;;5.15;1.65;;;;;;;;;;5092244;28;20058;-68
2023/08/28 09:02:25;;;;;;;13.65;3.35;;;;;;;;;;5095593;28;20625;-66
2023/08/28 09:04:51;;;;;;;5.65;1.25;;;;;;;;;;5091740;28;20055;-68
2023/08/28 09:07:19;;;;;;;5.13;2.20;;;;;;;;;;5094929;28;20092;-65
2023/08/28 09:09:45;;;;;;;3.63;1.30;;;;;;;;;;5096362;28;20040;-66
2023/08/28 09:12:13;;;;;;;5.22;1.77;;;;;;;;;;5094305;28;20453;-68
2023/08/28 09:14:40;;;;;;;4.30;1.63;;;;;;;;;;5095672;28;20450;-67
2023/08/28 09:17:07;;;;;;;1.30;0.90;;;;;;;;;;5093525;28;20105;-68
2023/08/28 09:19:34;;;;;;;3.90;1.92;;;;;;;;;;5094546;28;20044;-66
2023/08/28 09:22:03;;;;;;;4.35;1.25;;;;;;;;;;5095933;28;20313;-67
2023/08/28 09:24:30;;;;;;;5.47;1.63;;;;;;;;;;5096714;28;20044;-68
2023/08/28 09:26:56;;;;;;;2.90;1.35;;;;;;;;;;5093310;28;20036;-67
2023/08/28 09:29:23;;;;;;;2.70;1.17;;;;;;;;;;5085438;28;20040;-67
2023/08/28 09:31:51;;;;;;;6.85;1.45;;;;;;;;;;5092713;28;20044;-67
2023/08/28 09:34:18;;;;;;;3.53;1.00;;;;;;;;;;5090545;28;20063;-66
2023/08/28 09:36:44;;;;;;;3.45;1.10;;;;;;;;;;5074232;28;20052;-67
2023/08/28 09:39:12;;;;;;;7.40;2.65;;;;;;;;;;5091700;28;20048;-67
2023/08/28 09:41:48;;;;;;;5.38;1.05;;;;;;;;;;5073028;28;20055;-67
2023/08/28 09:44:16;;;;;;;4.00;1.30;;;;;;;;;;5090705;28;20121;-65
2023/08/28 09:46:43;;;;;;;4.72;1.33;;;;;;;;;;5093008;28;20036;-68
2023/08/28 09:49:11;;;;;;;2.63;1.17;;;;;;;;;;5093450;28;20046;-66
2023/08/28 09:51:39;;;;;;;7.47;1.30;;;;;;;;;;5092267;28;20094;-68
2023/08/28 09:54:05;;;;;;;3.13;1.30;;;;;;;;;;5094179;28;20075;-66
2023/08/28 09:56:32;;;;;;;4.05;1.02;;;;;;;;;;5092054;28;20135;-69
2023/08/28 09:58:59;;;;;;;3.28;1.00;;;;;;;;;;5092622;28;20734;-67
2023/08/28 10:01:29;;;;;;;3.03;1.15;;;;;;;;;;5090810;28;20661;-68
2023/08/28 10:03:56;;;;;;;2.70;1.13;;;;;;;;;;5092465;28;20115;-68
2023/08/28 10:06:24;;;;;;;4.10;1.33;;;;;;;;;;5089019;28;20055;-68
2023/08/28 10:08:53;;;;;;;5.47;1.23;;;;;;;;;;5087997;28;20119;-68
2023/08/28 10:11:20;;;;;;;2.95;1.52;;;;;;;;;;5086932;28;20139;-70
2023/08/28 10:13:47;;;;;;;5.95;1.67;;;;;;;;;;5093523;28;20044;-68
2023/08/28 10:16:15;;;;;;;2.38;1.30;;;;;;;;;;5089622;28;20066;-70
2023/08/28 10:18:48;;;;;;;5.13;2.58;;;;;;;;;;5092378;28;20067;-69
2023/08/28 10:21:16;;;;;;;5.28;1.20;;;;;;;;;;5085845;28;20127;-68
2023/08/28 10:23:43;;;;;;;3.47;1.00;;;;;;;;;;5092976;28;20044;-67
2023/08/28 10:26:10;;;;;;;3.40;1.08;;;;;;;;;;5088731;28;20882;-68
2023/08/28 10:28:37;;;;;;;3.25;0.90;;;;;;;;;;5091876;28;20127;-69
2023/08/28 10:31:05;;;;;;;2.42;1.55;;;;;;;;;;5090949;28;20113;-68
2023/08/28 10:33:32;;;;;;;1.48;0.88;;;;;;;;;;5089422;28;20689;-68
2023/08/28 10:35:59;;;;;;;2.97;0.93;;;;;;;;;;5090979;28;20048;-66
2023/08/28 10:38:27;;;;;;;2.70;1.40;;;;;;;;;;5089946;28;20436;-66
2023/08/28 10:40:54;;;;;;;2.15;0.90;;;;;;;;;;5093852;28;20089;-65
2023/08/28 10:43:22;;;;;;;2.08;1.17;;;;;;;;;;5089778;28;20048;-66
2023/08/28 10:45:51;;;;;;;5.75;1.23;;;;;;;;;;5093176;28;20043;-66
2023/08/28 10:48:17;;;;;;;4.75;1.02;;;;;;;;;;5089787;28;20131;-68
2023/08/28 10:50:45;;;;;;;7.45;1.08;;;;;;;;;;5095576;28;20071;-67
2023/08/28 10:53:15;;;;;;;12.32;1.35;;;;;;;;;;5074605;28;20048;-66
2023/08/28 10:55:55;;;;;;;5.32;1.10;;;;;;;;;;5095356;28;20131;-67
2023/08/28 10:58:21;;;;;;;2.30;1.15;;;;;;;;;;5097042;28;20397;-67
2023/08/28 11:00:48;;;;;;;5.43;1.35;;;;;;;;;;5096394;28;20059;-66
2023/08/28 11:03:15;;;;;;;2.58;1.00;;;;;;;;;;5095268;28;20472;-66
2023/08/28 11:05:42;;;;;;;1.85;1.00;;;;;;;;;;5094745;28;20047;-65
2023/08/28 11:08:09;;;;;;;3.22;0.80;;;;;;;;;;5094947;28;20075;-66
2023/08/28 11:10:36;;;;;;;1.67;0.52;;;;;;;;;;5095320;28;20056;-66
2023/08/28 11:13:06;;;;;;;2.35;0.80;;;;;;;;;;5092648;28;20148;-68
2023/08/28 11:15:34;;;;;;;2.05;0.95;;;;;;;;;;5095618;28;20079;-69
2023/08/28 11:18:29;;;;;;;3.42;0.70;;;;;;;;;;5094865;28;20115;-69
2023/08/28 11:21:03;;;;;;;4.70;1.50;;;;;;;;;;5097703;28;20044;-64
2023/08/28 11:23:34;;;;;;;1.42;0.85;;;;;;;;;;5092949;28;20672;-64
2023/08/28 11:26:02;;;;;;;;;;;;;;;;;;5095784;28;20051;-65
2023/08/28 11:28:41;;;;;;;4.55;0.82;;;;;;;;;;5091813;28;20027;-68
2023/08/28 11:31:07;;;;;;;2.85;0.80;;;;;;;;;;5094080;28;20473;-67
2023/08/28 11:33:35;;;;;;;1.83;0.82;;;;;;;;;;5093803;28;20060;-65
2023/08/28 11:36:03;;;;;;;2.58;0.90;;;;;;;;;;5092247;28;20075;-64
2023/08/28 11:38:29;;;;;;;2.55;0.68;;;;;;;;;;5095710;28;20449;-64
2023/08/28 11:41:04;;;;;;;3.60;0.90;;;;;;;;;;5093954;28;20109;-63
2023/08/28 11:43:34;;;;;;;2.08;0.60;;;;;;;;;;5096134;28;20047;-64
2023/08/28 11:46:02;;;;;;;6.18;0.70;;;;;;;;;;5092889;28;20132;-64
2023/08/28 11:48:31;;;;;;;4.63;0.82;;;;;;;;;;5094222;28;20043;-63
2023/08/28 11:51:01;;;;;;;2.63;0.90;;;;;;;;;;5094628;28;20036;-63
2023/08/28 11:53:28;;;;;;;1.65;1.00;;;;;;;;;;5096710;28;20331;-63
2023/08/28 11:55:55;;;;;;;2.92;1.17;;;;;;;;;;5091341;28;20556;-63
2023/08/28 11:58:22;;;;;;;2.08;0.75;;;;;;;;;;5090890;28;20139;-63
2023/08/28 12:00:48;;;;;;;2.00;0.70;;;;;;;;;;5096009;28;20539;-64
2023/08/28 12:03:19;;;;;;;2.47;0.63;;;;;;;;;;5095842;28;20474;-66
2023/08/28 12:05:45;;;;;;;2.97;1.00;;;;;;;;;;5095034;28;20451;-66
2023/08/28 12:08:12;;;;;;;5.45;1.05;;;;;;;;;;5096901;28;20044;-66
2023/08/28 12:10:40;;;;;;;7.15;1.45;;;;;;;;;;5096661;28;20475;-64
2023/08/28 12:13:06;;;;;;;2.53;0.80;;;;;;;;;;5093142;28;20083;-63
2023/08/28 12:15:33;;;;;;;1.92;0.68;;;;;;;;;;5094878;28;20118;-65
2023/08/28 12:18:01;;;;;;;4.05;1.23;;;;;;;;;;5093249;28;20153;-63
2023/08/28 12:20:29;;;;;;;4.18;0.80;;;;;;;;;;5093309;28;20104;-63
2023/08/28 12:22:58;;;;;;;1.80;0.70;;;;;;;;;;5095019;28;20072;-64
2023/08/28 12:25:31;;;;;;;5.60;0.88;;;;;;;;;;5096591;28;20522;-65
2023/08/28 12:28:05;;;;;;;1.50;0.68;;;;;;;;;;5093468;28;20489;-64
2023/08/28 12:30:31;;;;;;;3.42;0.70;;;;;;;;;;5094945;28;20136;-65
2023/08/28 12:32:59;;;;;;;1.77;0.80;;;;;;;;;;5090782;28;20043;-66
2023/08/28 12:35:27;;;;;;;4.32;1.15;;;;;;;;;;5090799;28;20459;-64
2023/08/28 12:37:53;;;;;;;2.22;0.82;;;;;;;;;;5091380;28;20107;-65
2023/08/28 12:40:19;;;;;;;3.22;0.68;;;;;;;;;;5092790;28;20040;-68
2023/08/28 12:42:46;;;;;;;4.30;0.68;;;;;;;;;;5083646;28;20071;-65
2023/08/28 12:45:12;;;;;;;1.83;0.98;;;;;;;;;;5089910;28;20567;-65
2023/08/28 12:47:40;;;;;;;1.88;0.80;;;;;;;;;;5087738;28;20147;-64
2023/08/28 12:50:08;;;;;;;6.25;0.80;;;;;;;;;;5095294;28;20044;-64
2023/08/28 12:52:34;;;;;;;3.25;1.10;;;;;;;;;;5086299;28;20636;-64
2023/08/28 12:55:01;;;;;;;3.05;0.77;;;;;;;;;;5086365;28;20097;-64
2023/08/28 12:57:27;;;;;;;5.32;0.90;;;;;;;;;;5087026;28;20085;-65
2023/08/28 12:59:54;;;;;;;5.40;1.05;;;;;;;;;;5092037;28;20071;-65
2023/08/28 13:02:20;;;;;;;2.40;0.65;;;;;;;;;;5094461;28;21230;-65
2023/08/28 13:04:47;;;;;;;7.88;0.85;;;;;;;;;;5091417;28;20068;-65
2023/08/28 13:07:16;;;;;;;3.45;0.93;;;;;;;;;;5099267;28;20500;-64
2023/08/28 13:09:43;;;;;;;2.45;0.90;;;;;;;;;;5070524;28;20192;-64
2023/08/28 13:12:09;;;;;;;3.20;0.70;;;;;;;;;;5097754;28;20124;-64
2023/08/28 13:14:36;;;;;;;4.68;0.93;;;;;;;;;;5083221;28;20033;-64
2023/08/28 13:17:04;;;;;;;5.43;0.60;;;;;;;;;;5076731;28;20128;-64
2023/08/28 13:19:30;;;;;;;2.78;0.80;;;;;;;;;;5076123;28;20437;-64
2023/08/28 13:21:57;;;;;;;5.50;0.65;;;;;;;;;;5073928;28;20032;-64
2023/08/28 13:24:24;;;;;;;1.58;0.65;;;;;;;;;;5085300;28;20149;-65
2023/08/28 13:27:08;;;;;;;1.70;0.52;;;;;;;;;;5074702;28;20109;-64
2023/08/28 13:29:35;;;;;;;3.40;0.52;;;;;;;;;;5076653;28;20056;-64
2023/08/28 13:32:03;;;;;;;3.67;0.75;;;;;;;;;;5058203;28;20044;-64
2023/08/28 13:34:30;;;;;;;2.35;0.60;;;;;;;;;;5084624;28;20090;-63
2023/08/28 13:36:59;;;;;;;2.30;0.60;;;;;;;;;;5077854;28;20040;-64
2023/08/28 13:39:26;;;;;;;2.25;0.70;;;;;;;;;;5079212;28;20044;-63
2023/08/28 13:41:53;;;;;;;6.07;0.90;;;;;;;;;;5074747;28;20471;-64
2023/08/28 13:44:19;;;;;;;3.45;0.70;;;;;;;;;;5073759;28;20047;-63
2023/08/28 13:46:46;;;;;;;2.15;0.60;;;;;;;;;;5082279;28;20037;-63
2023/08/28 13:49:12;;;;;;;4.93;0.90;;;;;;;;;;5079548;28;20098;-63
2023/08/28 13:51:39;;;;;;;8.13;1.30;;;;;;;;;;5086163;28;20052;-63
2023/08/28 13:54:05;;;;;;;3.03;0.98;;;;;;;;;;5075285;28;20044;-63
2023/08/28 13:56:32;;;;;;;3.47;0.63;;;;;;;;;;5077759;28;20097;-64
2023/08/28 13:58:58;;;;;;;2.97;0.90;;;;;;;;;;5084897;28;20111;-64
2023/08/28 14:01:24;;;;;;;1.58;0.50;;;;;;;;;;5082983;28;20040;-64
2023/08/28 14:03:51;;;;;;;2.97;0.80;;;;;;;;;;5081742;28;20464;-64
2023/08/28 14:06:18;;;;;;;6.05;0.80;;;;;;;;;;5088577;28;20127;-63
2023/08/28 14:08:44;;;;;;;1.90;0.60;;;;;;;;;;5082283;28;20050;-63
2023/08/28 14:11:11;;;;;;;2.45;0.70;;;;;;;;;;5083109;28;20173;-63
2023/08/28 14:13:37;;;;;;;1.52;0.82;;;;;;;;;;5087711;28;20044;-65
2023/08/28 14:16:04;;;;;;;1.65;0.60;;;;;;;;;;5088738;28;20087;-64
2023/08/28 14:18:31;;;;;;;2.67;0.60;;;;;;;;;;5087696;28;20487;-63
2023/08/28 14:20:58;;;;;;;2.08;0.70;;;;;;;;;;5088467;28;20042;-65
2023/08/28 14:23:24;;;;;;;4.07;0.88;;;;;;;;;;5087619;28;20484;-65
2023/08/28 14:25:51;;;;;;;2.55;0.60;;;;;;;;;;5089353;28;20039;-65
2023/08/28 14:28:18;;;;;;;3.38;0.85;;;;;;;;;;5092155;28;20068;-65
2023/08/28 14:30:47;;;;;;;4.27;1.60;;;;;;;;;;5092703;28;20040;-65
2023/08/28 14:33:14;;;;;;;3.83;0.95;;;;;;;;;;5091952;28;20645;-65
2023/08/28 14:35:42;;;;;;;2.97;0.82;;;;;;;;;;5092364;28;20048;-65
2023/08/28 14:38:09;;;;;;;1.70;0.70;;;;;;;;;;5092138;28;20121;-65
2023/08/28 14:40:36;;;;;;;5.05;0.60;;;;;;;;;;5091986;28;20521;-65
2023/08/28 14:43:13;;;;;;;2.97;0.60;;;;;;;;;;5091574;28;20824;-65
2023/08/28 14:45:40;;;;;;;1.52;0.60;;;;;;;;;;5091844;28;20101;-65
2023/08/28 14:48:06;;;;;;;2.88;0.93;;;;;;;;;;5091766;28;20097;-65
2023/08/28 14:50:33;;;;;;;2.35;0.80;;;;;;;;;;5091802;28;20127;-65
2023/08/28 14:53:00;;;;;;;2.00;1.15;;;;;;;;;;5091641;28;20097;-65
2023/08/28 14:55:27;;;;;;;1.75;0.73;;;;;;;;;;5091438;28;20113;-65
2023/08/28 14:57:54;;;;;;;4.30;1.00;;;;;;;;;;5091335;28;20078;-65
2023/08/28 15:00:20;;;;;;;1.05;0.57;;;;;;;;;;5091948;28;20051;-65
2023/08/28 15:02:47;;;;;;;1.98;0.50;;;;;;;;;;5091094;28;20192;-65
2023/08/28 15:05:13;;;;;;;3.08;0.80;;;;;;;;;;5092097;28;20048;-65
2023/08/28 15:07:40;;;;;;;3.00;0.80;;;;;;;;;;5091410;28;20052;-65
2023/08/28 15:10:07;;;;;;;3.78;0.77;;;;;;;;;;5091828;28;20075;-65
2023/08/28 15:12:33;;;;;;;3.65;0.88;;;;;;;;;;5090796;28;20083;-65
2023/08/28 15:15:00;;;;;;;5.30;0.70;;;;;;;;;;5091664;28;20048;-65
2023/08/28 15:17:26;;;;;;;5.00;0.70;;;;;;;;;;5089617;28;20130;-65
2023/08/28 15:19:53;;;;;;;2.88;1.05;;;;;;;;;;5091502;28;20064;-65
2023/08/28 15:22:19;;;;;;;3.03;0.80;;;;;;;;;;5090739;28;20514;-65
2023/08/28 15:24:46;;;;;;;1.58;0.52;;;;;;;;;;5091503;28;20119;-65
2023/08/28 15:27:14;;;;;;;1.98;0.88;;;;;;;;;;5090290;28;20264;-65
2023/08/28 15:29:42;;;;;;;6.55;0.98;;;;;;;;;;5091435;28;20093;-65
2023/08/28 15:32:08;;;;;;;8.85;0.85;;;;;;;;;;5090697;28;20093;-65
2023/08/28 15:34:35;;;;;;;3.80;0.77;;;;;;;;;;5090988;28;20067;-65
2023/08/28 15:37:02;;;;;;;1.45;0.60;;;;;;;;;;5090305;28;20115;-65
2023/08/28 15:39:28;;;;;;;1.63;0.90;;;;;;;;;;5090902;28;20093;-65
2023/08/28 15:41:55;;;;;;;1.35;0.82;;;;;;;;;;5090929;28;20074;-65
2023/08/28 15:44:21;;;;;;;2.40;0.82;;;;;;;;;;5090965;28;20124;-65
2023/08/28 15:46:48;;;;;;;2.53;0.60;;;;;;;;;;5090934;28;20108;-65
2023/08/28 15:49:14;;;;;;;1.23;0.52;;;;;;;;;;5090777;28;20040;-65
2023/08/28 15:51:41;;;;;;;5.18;1.05;;;;;;;;;;5090653;28;20152;-65
2023/08/28 15:54:07;;;;;;;2.00;1.20;;;;;;;;;;5090539;28;20036;-65
2023/08/28 15:56:34;;;;;;;1.35;0.82;;;;;;;;;;5072710;28;20127;-65
2023/08/28 15:59:00;;;;;;;4.40;0.82;;;;;;;;;;5090393;28;20040;-65
2023/08/28 16:01:40;;;;;;;2.63;0.55;;;;;;;;;;5090170;28;20552;-65
2023/08/28 16:04:07;;;;;;;2.55;0.73;;;;;;;;;;5092976;28;20096;-65
2023/08/28 16:06:33;;;;;;;2.72;0.73;;;;;;;;;;5095230;28;20072;-63
2023/08/28 16:09:00;;;;;;;1.48;0.70;;;;;;;;;;5101667;28;20065;-63
2023/08/28 16:11:26;;;;;;;1.95;0.90;;;;;;;;;;5098237;28;20047;-63
2023/08/28 16:13:53;;;;;;;3.22;1.05;;;;;;;;;;5100831;28;20036;-63
2023/08/28 16:16:19;;;;;;;1.50;0.73;;;;;;;;;;5101604;28;20462;-64
2023/08/28 16:18:46;;;;;;;2.75;0.80;;;;;;;;;;5079013;28;20047;-64
2023/08/28 16:21:12;;;;;;;3.88;0.70;;;;;;;;;;5098074;28;20072;-65
2023/08/28 16:23:39;;;;;;;9.02;0.85;;;;;;;;;;5095921;28;20116;-64
2023/08/28 16:26:05;;;;;;;5.25;0.77;;;;;;;;;;5105853;28;20114;-65
2023/08/28 16:28:32;;;;;;;2.30;0.75;;;;;;;;;;5098157;28;20040;-64
2023/08/28 16:30:58;;;;;;;2.95;0.90;;;;;;;;;;5062526;28;20443;-64
2023/08/28 16:33:25;;;;;;;1.75;0.88;;;;;;;;;;5100137;28;20063;-64
2023/08/28 16:35:51;;;;;;;1.73;0.70;;;;;;;;;;5100185;28;20131;-64
2023/08/28 16:38:18;;;;;;;5.20;1.20;;;;;;;;;;5084724;28;20043;-64
2023/08/28 16:40:46;;;;;;;5.13;0.93;;;;;;;;;;5093218;28;20036;-64
2023/08/28 16:43:13;;;;;;;3.63;1.20;;;;;;;;;;5093821;28;20143;-64
2023/08/28 16:45:39;;;;;;;2.00;0.65;;;;;;;;;;5106773;28;20101;-64
2023/08/28 16:48:06;;;;;;;4.13;0.82;;;;;;;;;;5094147;28;20082;-63
2023/08/28 16:50:32;;;;;;;2.08;0.65;;;;;;;;;;5100613;28;20062;-64
2023/08/28 16:52:59;;;;;;;3.88;1.05;;;;;;;;;;5090906;28;20468;-64
2023/08/28 16:55:25;;;;;;;2.65;1.00;;;;;;;;;;5106948;28;20123;-64
2023/08/28 16:57:52;;;;;;;2.08;0.90;;;;;;;;;;5093908;28;20063;-65
2023/08/28 17:00:19;;;;;;;4.60;1.10;;;;;;;;;;5097151;28;20511;-64
2023/08/28 17:02:45;;;;;;;2.55;1.40;;;;;;;;;;5093276;28;20039;-64
2023/08/28 17:05:12;;;;;;;5.07;1.10;;;;;;;;;;5101140;28;20047;-64
2023/08/28 17:07:38;;;;;;;3.13;1.00;;;;;;;;;;5099144;28;20559;-65
2023/08/28 17:10:05;;;;;;;5.07;1.00;;;;;;;;;;5100568;28;20823;-64
2023/08/28 17:12:33;;;;;;;3.03;1.20;;;;;;;;;;5089788;28;20469;-65
2023/08/28 17:14:59;;;;;;;2.17;1.00;;;;;;;;;;5073797;28;20097;-64
2023/08/28 17:17:25;;;;;;;1.38;1.17;;;;;;;;;;5094306;28;20044;-66
2023/08/28 17:19:52;;;;;;;2.63;1.27;;;;;;;;;;5104564;28;20040;-65
2023/08/28 17:22:19;;;;;;;2.67;0.88;;;;;;;;;;5093565;28;20138;-64
2023/08/28 17:24:46;;;;;;;2.22;0.68;;;;;;;;;;5099707;28;20448;-65
2023/08/28 17:27:12;;;;;;;3.20;1.27;;;;;;;;;;5088829;28;20410;-64
2023/08/28 17:29:39;;;;;;;2.42;0.80;;;;;;;;;;5091511;28;20453;-64
2023/08/28 17:32:05;;;;;;;4.80;1.38;;;;;;;;;;5098457;28;20310;-64
2023/08/28 17:34:32;;;;;;;2.17;0.80;;;;;;;;;;5093697;28;20059;-64
2023/08/28 17:36:58;;;;;;;4.85;1.58;;;;;;;;;;5098091;28;20113;-65
2023/08/28 17:39:27;;;;;;;3.20;1.38;;;;;;;;;;5082611;28;20040;-64
2023/08/28 17:41:54;;;;;;;4.55;0.93;;;;;;;;;;5089669;28;20075;-65
2023/08/28 17:44:20;;;;;;;6.45;1.20;;;;;;;;;;5105430;28;20071;-64
2023/08/28 17:46:47;;;;;;;4.57;1.15;;;;;;;;;;5094295;28;20042;-64
2023/08/28 17:49:13;;;;;;;4.97;1.13;;;;;;;;;;5101651;28;20131;-64
2023/08/28 17:51:40;;;;;;;2.72;1.10;;;;;;;;;;5084935;28;20158;-65
2023/08/28 17:54:06;;;;;;;3.75;1.30;;;;;;;;;;5100051;28;20119;-64
2023/08/28 17:56:33;;;;;;;9.85;4.30;;;;;;;;;;5102133;28;20491;-64
2023/08/28 17:59:00;;;;;;;6.43;3.05;;;;;;;;;;5090191;28;20085;-63
2023/08/28 18:01:26;;;;;;;5.53;2.70;;;;;;;;;;5081739;28;20531;-63
2023/08/28 18:03:53;;;;;;;4.10;1.90;;;;;;;;;;5085405;28;20040;-64
2023/08/28 18:06:19;;;;;;;3.08;1.17;;;;;;;;;;5101543;28;20040;-64
2023/08/28 18:08:46;;;;;;;3.58;1.15;;;;;;;;;;5104394;28;20051;-64
2023/08/28 18:11:12;;;;;;;4.18;1.27;;;;;;;;;;5092340;28;20196;-63
2023/08/28 18:13:39;;;;;;;9.35;1.58;;;;;;;;;;5083616;28;20377;-64
2023/08/28 18:16:13;;;;;;;8.60;4.00;;;;;;;;;;5093502;28;20500;-63
2023/08/28 18:18:40;;;;;;;4.28;2.78;;;;;;;;;;5100772;28;20127;-63
2023/08/28 18:21:06;;;;;;;5.20;1.60;;;;;;;;;;5102035;28;20118;-64
2023/08/28 18:23:33;;;;;;;4.18;1.83;;;;;;;;;;5097877;28;20064;-64
2023/08/28 18:25:59;;;;;;;6.47;1.88;;;;;;;;;;5101925;28;20118;-64
2023/08/28 18:28:25;;;;;;;3.80;1.50;;;;;;;;;;5089627;28;20068;-64
2023/08/28 18:30:52;;;;;;;4.07;1.60;;;;;;;;;;5087342;28;20132;-64
2023/08/28 18:33:19;;;;;;;2.38;1.48;;;;;;;;;;5087377;28;20118;-64
2023/08/28 18:35:46;;;;;;;4.57;1.75;;;;;;;;;;5069212;28;20071;-64
2023/08/28 18:38:13;;;;;;;3.17;1.30;;;;;;;;;;5087631;28;20057;-64
2023/08/28 18:40:45;;;;;;;3.95;1.85;;;;;;;;;;5088758;28;20503;-64
2023/08/28 18:43:12;;;;;;;3.35;1.83;;;;;;;;;;5088385;28;20098;-64
2023/08/28 18:45:38;;;;;;;5.93;2.05;;;;;;;;;;5088729;28;20043;-64
2023/08/28 18:48:05;;;;;;;3.20;1.92;;;;;;;;;;5087152;28;20089;-64
2023/08/28 18:50:32;;;;;;;2.88;1.60;;;;;;;;;;5088926;28;20040;-64
2023/08/28 18:52:59;;;;;;;2.45;1.60;;;;;;;;;;5087894;28;20464;-64
2023/08/28 18:55:26;;;;;;;3.10;1.95;;;;;;;;;;5088352;28;20145;-64
2023/08/28 18:57:59;;;;;;;3.75;1.60;;;;;;;;;;5081637;28;20041;-64
2023/08/28 19:00:25;;;;;;;5.38;1.75;;;;;;;;;;5087879;28;20056;-64
2023/08/28 19:02:54;;;;;;;4.20;1.65;;;;;;;;;;5088108;28;20048;-64
2023/08/28 19:05:21;;;;;;;4.57;1.88;;;;;;;;;;5088207;28;20347;-64
2023/08/28 19:07:48;;;;;;;5.38;2.42;;;;;;;;;;5088081;28;20135;-64
2023/08/28 19:10:16;;;;;;;4.03;2.30;;;;;;;;;;5088039;28;20047;-64
2023/08/28 19:12:43;;;;;;;3.58;1.83;;;;;;;;;;5090560;28;20076;-64
2023/08/28 19:15:11;;;;;;;3.05;1.65;;;;;;;;;;5091929;28;20113;-64
2023/08/28 19:17:38;;;;;;;3.25;1.73;;;;;;;;;;5091689;28;20054;-64
2023/08/28 19:20:05;;;;;;;3.20;1.42;;;;;;;;;;5091952;28;20062;-64
2023/08/28 19:22:32;;;;;;;3.92;1.90;;;;;;;;;;5091581;28;20478;-64
2023/08/28 19:25:00;;;;;;;3.78;2.03;;;;;;;;;;5092240;28;20538;-64
2023/08/28 19:27:27;;;;;;;9.60;2.20;;;;;;;;;;5091348;28;20456;-64
2023/08/28 19:29:54;;;;;;;4.90;2.17;;;;;;;;;;5092036;28;20040;-64
2023/08/28 19:32:34;;;;;;;5.30;1.95;;;;;;;;;;5091086;28;20397;-64
2023/08/28 19:35:02;;;;;;;3.00;1.70;;;;;;;;;;5091715;28;20097;-64
2023/08/28 19:37:29;;;;;;;2.90;1.80;;;;;;;;;;5090898;28;20072;-64
2023/08/28 19:39:56;;;;;;;5.25;1.85;;;;;;;;;;5091370;28;20048;-64
2023/08/28 19:42:22;;;;;;;3.40;1.70;;;;;;;;;;5090777;28;20063;-64
2023/08/28 19:44:49;;;;;;;2.78;1.63;;;;;;;;;;5091313;28;20043;-64
2023/08/28 19:47:15;;;;;;;3.97;1.73;;;;;;;;;;5090967;28;20143;-64
2023/08/28 19:49:42;;;;;;;7.72;1.80;;;;;;;;;;5090873;28;20055;-64
2023/08/28 19:52:09;;;;;;;3.05;2.05;;;;;;;;;;5091319;28;20142;-64
2023/08/28 19:54:36;;;;;;;6.55;2.38;;;;;;;;;;5073281;28;20061;-64
2023/08/28 19:57:06;;;;;;;6.15;2.08;;;;;;;;;;5091067;28;20040;-64
2023/08/28 19:59:35;;;;;;;4.05;2.00;;;;;;;;;;5072939;28;20039;-64
2023/08/28 20:02:01;;;;;;;7.50;1.95;;;;;;;;;;5091188;28;20047;-64
2023/08/28 20:04:28;;;;;;;5.50;2.50;;;;;;;;;;5090987;28;20512;-64
2023/08/28 20:06:55;;;;;;;6.45;2.03;;;;;;;;;;5090693;28;20063;-64
2023/08/28 20:09:22;;;;;;;5.20;2.00;;;;;;;;;;5090907;28;20040;-64
2023/08/28 20:11:48;;;;;;;4.07;2.30;;;;;;;;;;5090339;28;20040;-64
2023/08/28 20:14:15;;;;;;;4.90;2.83;;;;;;;;;;5091164;28;20044;-64
2023/08/28 20:16:41;;;;;;;3.67;2.00;;;;;;;;;;5090377;28;20097;-64
2023/08/28 20:19:08;;;;;;;5.32;2.65;;;;;;;;;;5089447;28;20138;-64
2023/08/28 20:21:34;;;;;;;4.60;2.58;;;;;;;;;;5090372;28;20055;-64
2023/08/28 20:24:00;;;;;;;4.35;2.33;;;;;;;;;;5090774;28;20488;-64
2023/08/28 20:26:27;;;;;;;6.25;2.97;;;;;;;;;;5090297;28;20050;-64
2023/08/28 20:28:53;;;;;;;5.70;3.35;;;;;;;;;;5090410;28;20436;-64
2023/08/28 20:31:20;;;;;;;7.85;3.92;;;;;;;;;;5090082;28;20071;-64
2023/08/28 20:33:46;;;;;;;6.47;2.60;;;;;;;;;;5090915;28;20341;-64
2023/08/28 20:36:13;;;;;;;9.27;2.53;;;;;;;;;;5090575;28;20139;-64
2023/08/28 20:38:39;;;;;;;6.40;1.95;;;;;;;;;;5088981;28;20092;-64
2023/08/28 20:41:06;;;;;;;3.53;2.22;;;;;;;;;;5090268;28;20075;-64
2023/08/28 20:43:32;;;;;;;4.30;2.40;;;;;;;;;;5090355;28;20071;-64
2023/08/28 20:46:03;;;;;;;5.55;2.83;;;;;;;;;;5090093;28;20135;-64
2023/08/28 20:48:29;;;;;;;6.00;2.88;;;;;;;;;;5089811;28;20036;-64